Saline County Regional Airport
KSUZ : now visible

Airfield :











YOU CAN JOIN US ON...

 
LOGIN :

Register | Disclaimer

   EN    FR    IT 

 









Legend :    VFR   Marginal VFR   IFR   Intensive IFR   Very Intensive IFR
Visi :
Ceiling :
>= 8 km
>= 3000ft
5 to 8 km
1000 to 3000 ft
1500m to 5 km
500 to 1000 ft
800 to 1500m
200 to 500 ft
< 800m
< 200 ft
Symbols :   Thunderstorms  Fog  Heavy snow  Heavy precipitations  Wind > 20 kt






- Airport Elevation : 390 ft


KSUZ - Saline County Regional

CURRENT METAR :
  • 171155Z AUTO 15007KT 8SM OVC004 12/12 A2992 RMK A01

EXPIRED METARs :
  • 171135Z AUTO 16005KT 9SM OVC004 12/12 A2992 RMK A01
  • 171115Z AUTO 15005KT 10SM OVC003 12/12 A2992 RMK A01
  • 171055Z AUTO 15005KT 6SM BR OVC003 12/12 A2992 RMK A01
  • 171035Z AUTO 15008KT 10SM OVC004 13/12 A2992 RMK A01
  • 171015Z AUTO 13005KT 10SM BKN004 OVC030 13/12 A2993 RMK A01
  • 170955Z AUTO 14005KT 10SM BKN004 OVC030 13/12 A2993 RMK A01
  • 170935Z AUTO 16005KT 9SM OVC004 13/12 A2995 RMK A01
  • 170915Z AUTO 14004KT 10SM SCT005 OVC029 13/12 A2995 RMK A01
  • 170855Z AUTO 15003KT 7SM SCT004 OVC028 12/12 A2996 RMK A01

TAF N/A



MET'MAP, your aeronautical weather chart ! - Copyright ORBIFLY December 2007 - Disclaimer

ORBIFLY MET'MAP TEAM :

Programming & Development : Alexandra Zaïnal
Concept & original design : Baudouin d'Aumeries
Assistance for programming : Marc-Olivier Méhu
Technical & hardware support : Manuel Goepfert

Contact : metmap@orbifly.com




SOURCES & CREDITS :

   NOAA       Earth
Advisory